createdAt,value
2018-07-13T00:01:08.362Z,15.40
2018-07-13T00:03:37.904Z,15.50
2018-07-13T00:06:09.511Z,15.60
2018-07-13T00:08:39.360Z,15.70
2018-07-13T00:11:10.355Z,15.70
2018-07-13T00:13:48.544Z,15.80
2018-07-13T00:16:19.655Z,15.70
2018-07-13T00:18:50.314Z,15.60
2018-07-13T00:21:19.927Z,15.50
2018-07-13T00:23:50.047Z,15.40
2018-07-13T00:26:20.028Z,15.30
2018-07-13T00:28:49.878Z,15.30
2018-07-13T00:31:19.545Z,15.20
2018-07-13T00:33:49.983Z,15.10
2018-07-13T00:36:20.134Z,15.10
2018-07-13T00:38:49.723Z,15.00
2018-07-13T00:41:18.135Z,14.90
2018-07-13T00:43:47.598Z,14.80
2018-07-13T00:46:16.227Z,14.70
2018-07-13T00:48:45.849Z,14.70
2018-07-13T00:51:15.036Z,14.60
2018-07-13T00:53:44.948Z,14.70
2018-07-13T00:56:13.636Z,14.60
2018-07-13T00:58:44.307Z,14.60
2018-07-13T01:01:13.780Z,14.60
2018-07-13T01:03:42.810Z,14.60
2018-07-13T01:06:12.448Z,14.60
2018-07-13T01:08:43.292Z,14.50
2018-07-13T01:11:12.415Z,14.50
2018-07-13T01:13:42.163Z,14.50
2018-07-13T01:16:11.768Z,14.40
2018-07-13T01:18:41.142Z,14.30
2018-07-13T01:21:11.148Z,14.30
2018-07-13T01:23:40.653Z,14.20
2018-07-13T01:26:09.783Z,14.20
2018-07-13T01:28:41.279Z,14.20
2018-07-13T01:31:14.272Z,14.10
2018-07-13T01:33:43.793Z,14.00
2018-07-13T01:36:12.712Z,13.90
2018-07-13T01:38:41.235Z,14.00
2018-07-13T01:41:10.238Z,14.00
2018-07-13T01:43:39.446Z,14.00
2018-07-13T01:46:08.970Z,13.90
2018-07-13T01:48:41.163Z,13.80
2018-07-13T01:51:11.130Z,13.70
2018-07-13T01:53:43.798Z,13.70
2018-07-13T01:56:14.807Z,13.60
2018-07-13T01:58:43.439Z,13.60
2018-07-13T02:01:13.731Z,13.60
2018-07-13T02:03:43.530Z,13.60
2018-07-13T02:06:13.776Z,13.60
2018-07-13T02:08:42.706Z,13.60
2018-07-13T02:11:12.304Z,13.60
2018-07-13T02:13:42.318Z,13.50
2018-07-13T02:16:13.723Z,13.70
2018-07-13T02:18:43.779Z,13.80
2018-07-13T02:21:12.710Z,13.80
2018-07-13T02:23:43.839Z,13.70
2018-07-13T02:26:13.857Z,13.70
2018-07-13T02:28:44.343Z,13.70
2018-07-13T02:31:13.112Z,13.60
2018-07-13T02:33:41.567Z,13.60
2018-07-13T02:36:11.511Z,13.50
2018-07-13T02:38:39.977Z,13.40
2018-07-13T02:41:09.017Z,13.40
2018-07-13T02:43:38.565Z,13.30
2018-07-13T02:46:09.289Z,13.40
2018-07-13T02:48:39.600Z,13.40
2018-07-13T02:51:09.792Z,13.40
2018-07-13T02:53:38.596Z,13.40
2018-07-13T02:56:07.966Z,13.40
2018-07-13T02:58:37.426Z,13.40
2018-07-13T03:01:06.421Z,13.30
2018-07-13T03:03:36.287Z,13.20
2018-07-13T03:06:05.964Z,13.10
2018-07-13T03:08:38.223Z,13.00
2018-07-13T03:11:07.207Z,12.90
2018-07-13T03:13:36.617Z,12.90
2018-07-13T03:16:05.766Z,12.90
2018-07-13T03:18:34.915Z,12.90
2018-07-13T03:21:04.226Z,13.00
2018-07-13T03:23:35.624Z,13.00
2018-07-13T03:26:04.496Z,13.00
2018-07-13T03:28:34.235Z,13.00
2018-07-13T03:31:02.724Z,13.00
2018-07-13T03:33:32.576Z,13.00
2018-07-13T03:36:02.335Z,13.10
2018-07-13T03:38:32.015Z,13.20
2018-07-13T03:41:01.594Z,13.10
2018-07-13T03:43:31.773Z,13.10
2018-07-13T03:46:01.335Z,13.20
2018-07-13T03:48:32.074Z,13.30
2018-07-13T03:51:00.534Z,13.30
2018-07-13T03:53:31.990Z,13.40
2018-07-13T03:56:01.887Z,13.50
2018-07-13T03:58:31.756Z,13.50
2018-07-13T04:01:01.664Z,13.70
2018-07-13T04:03:31.246Z,13.90
2018-07-13T04:06:00.161Z,14.10
2018-07-13T04:08:31.681Z,14.20
2018-07-13T04:11:01.299Z,14.40
2018-07-13T04:13:32.432Z,14.50
2018-07-13T04:16:02.305Z,14.80
2018-07-13T04:18:31.852Z,14.90
2018-07-13T04:21:00.387Z,15.10
2018-07-13T04:23:31.112Z,15.30
2018-07-13T04:26:00.620Z,15.60
2018-07-13T04:28:29.935Z,15.90
2018-07-13T04:30:58.354Z,16.30
2018-07-13T04:33:30.980Z,16.50
2018-07-13T04:36:00.811Z,16.90
2018-07-13T04:38:29.722Z,17.20
2018-07-13T04:40:59.313Z,17.40
2018-07-13T04:43:27.703Z,17.50
2018-07-13T04:45:57.800Z,17.70
2018-07-13T04:48:27.189Z,17.90
2018-07-13T04:50:55.967Z,18.10
2018-07-13T04:53:26.563Z,18.40
2018-07-13T04:55:56.529Z,18.50
2018-07-13T04:58:25.639Z,18.70
2018-07-13T05:00:55.797Z,19.00
2018-07-13T05:03:26.580Z,19.30
2018-07-13T05:05:56.305Z,19.30
2018-07-13T05:08:26.094Z,19.60
2018-07-13T05:10:57.285Z,19.80
2018-07-13T05:13:27.712Z,19.80
2018-07-13T05:15:57.614Z,19.90
2018-07-13T05:18:27.240Z,19.80
2018-07-13T05:20:56.526Z,19.90
2018-07-13T05:23:28.255Z,19.80
2018-07-13T05:25:57.746Z,20.00
2018-07-13T05:28:26.321Z,20.20
2018-07-13T05:30:57.213Z,20.10
2018-07-13T05:33:25.935Z,19.70
2018-07-13T05:35:56.319Z,19.20
2018-07-13T05:38:25.244Z,18.80
2018-07-13T05:40:54.836Z,18.90
2018-07-13T05:43:26.389Z,18.60
2018-07-13T05:45:56.054Z,18.00
2018-07-13T05:48:24.468Z,17.90
2018-07-13T05:50:54.210Z,17.70
2018-07-13T05:53:25.020Z,17.30
2018-07-13T05:55:54.564Z,17.50
2018-07-13T05:58:23.820Z,17.80
2018-07-13T06:00:55.385Z,18.00
2018-07-13T06:03:25.205Z,18.00
2018-07-13T06:05:56.727Z,17.90
2018-07-13T06:08:25.792Z,17.70
2018-07-13T06:10:57.515Z,17.80
2018-07-13T06:13:28.368Z,17.80
2018-07-13T06:15:59.232Z,18.10
2018-07-13T06:18:29.079Z,18.10
2018-07-13T06:20:59.362Z,18.10
2018-07-13T06:23:29.392Z,17.80
2018-07-13T06:25:58.701Z,17.90
2018-07-13T06:28:28.281Z,18.10
2018-07-13T06:33:29.840Z,17.90
2018-07-13T06:35:58.748Z,17.40
2018-07-13T06:38:28.951Z,17.00
2018-07-13T06:40:59.356Z,17.10
2018-07-13T06:43:28.833Z,17.40
2018-07-13T06:45:58.650Z,17.50
2018-07-13T06:48:28.366Z,17.30
2018-07-13T06:50:57.100Z,17.30
2018-07-13T06:53:29.280Z,17.60
2018-07-13T06:56:00.146Z,17.70
2018-07-13T06:58:37.951Z,17.90
2018-07-13T07:01:08.742Z,18.00
2018-07-13T07:03:45.655Z,19.30
2018-07-13T07:06:16.466Z,19.80
2018-07-13T07:08:46.477Z,19.90
2018-07-13T07:11:16.311Z,19.50
2018-07-13T07:13:46.990Z,19.40
2018-07-13T07:16:16.761Z,19.40
2018-07-13T07:18:46.519Z,20.10
2018-07-13T07:21:15.067Z,20.30
2018-07-13T07:23:45.602Z,20.60
2018-07-13T07:26:14.431Z,21.20
2018-07-13T07:28:44.781Z,22.10
2018-07-13T07:31:13.876Z,22.80
2018-07-13T07:33:42.758Z,23.50
2018-07-13T07:36:12.410Z,23.90
2018-07-13T07:38:41.080Z,23.10
2018-07-13T07:41:09.862Z,22.60
2018-07-13T07:43:40.892Z,22.60
2018-07-13T07:46:09.692Z,23.40
2018-07-13T07:48:40.965Z,23.40
2018-07-13T07:51:10.583Z,23.30
2018-07-13T07:53:38.974Z,22.80
2018-07-13T07:56:08.249Z,22.40
2018-07-13T07:58:37.445Z,23.00
2018-07-13T08:01:06.796Z,23.50
2018-07-13T08:03:36.188Z,22.30
2018-07-13T08:06:04.762Z,21.70
2018-07-13T08:08:34.683Z,22.20
2018-07-13T08:11:03.149Z,22.40
2018-07-13T08:13:31.930Z,22.40
2018-07-13T08:16:00.241Z,22.50
2018-07-13T08:18:28.739Z,23.20
2018-07-13T08:20:57.094Z,24.20
2018-07-13T08:23:25.626Z,25.10
2018-07-13T08:25:54.866Z,25.80
2018-07-13T08:28:25.585Z,26.10
2018-07-13T08:30:57.167Z,24.60
2018-07-13T08:33:25.896Z,25.00
2018-07-13T08:35:54.654Z,25.20
2018-07-13T08:38:23.933Z,24.40
2018-07-13T08:40:52.527Z,24.80
2018-07-13T08:43:21.507Z,25.90
2018-07-13T08:45:50.113Z,26.80
2018-07-13T08:48:19.703Z,27.20
2018-07-13T08:50:48.165Z,27.30
2018-07-13T08:53:19.210Z,26.90
2018-07-13T08:55:47.686Z,26.80
2018-07-13T08:58:18.508Z,26.80
2018-07-13T09:00:47.040Z,26.80
2018-07-13T09:03:15.569Z,27.20
2018-07-13T09:05:44.170Z,27.60
2018-07-13T09:08:13.090Z,27.70
2018-07-13T09:10:41.623Z,27.70
2018-07-13T09:13:12.099Z,26.50
2018-07-13T09:15:45.311Z,26.50
2018-07-13T09:18:13.803Z,27.30
2018-07-13T09:20:42.254Z,27.40
2018-07-13T09:23:10.804Z,27.30
2018-07-13T09:25:39.250Z,27.80
2018-07-13T09:28:07.712Z,28.10
2018-07-13T09:30:36.380Z,28.00
2018-07-13T09:33:04.938Z,28.00
2018-07-13T09:35:33.621Z,28.20
2018-07-13T09:38:02.645Z,28.90
2018-07-13T09:40:31.170Z,28.30
2018-07-13T09:45:28.878Z,28.60
2018-07-13T09:47:58.296Z,29.10
2018-07-13T09:50:27.001Z,29.60
2018-07-13T09:52:56.676Z,29.40
2018-07-13T09:55:26.741Z,28.50
2018-07-13T09:57:55.469Z,27.60
2018-07-13T10:00:28.289Z,28.20
2018-07-13T10:02:56.679Z,29.00
2018-07-13T10:05:25.185Z,29.20
2018-07-13T10:07:53.710Z,29.50
2018-07-13T10:10:22.209Z,29.90
2018-07-13T10:12:50.800Z,30.50
2018-07-13T10:15:19.444Z,30.40
2018-07-13T10:17:48.080Z,29.10
2018-07-13T10:20:17.082Z,27.50
2018-07-13T10:22:45.754Z,28.10
2018-07-13T10:25:16.005Z,29.20
2018-07-13T10:27:44.430Z,29.30
2018-07-13T10:30:13.802Z,29.10
2018-07-13T10:32:43.328Z,29.60
2018-07-13T10:35:12.356Z,29.80
2018-07-13T10:37:41.701Z,29.50
2018-07-13T10:40:10.455Z,29.40
2018-07-13T10:42:38.964Z,27.70
2018-07-13T10:45:07.751Z,28.30
2018-07-13T10:47:36.343Z,29.10
2018-07-13T10:50:05.046Z,28.60
2018-07-13T10:52:33.692Z,28.90
2018-07-13T10:55:02.432Z,29.40
2018-07-13T10:57:30.917Z,29.90
2018-07-13T10:59:59.975Z,30.10
2018-07-13T11:02:29.102Z,29.60
2018-07-13T11:04:57.642Z,29.10
2018-07-13T11:07:27.369Z,29.30
2018-07-13T11:09:56.034Z,29.80
2018-07-13T11:12:24.490Z,28.50
2018-07-13T11:14:53.065Z,27.20
2018-07-13T11:17:21.577Z,28.00
2018-07-13T11:19:50.056Z,28.60
2018-07-13T11:22:18.776Z,29.30
2018-07-13T11:24:47.372Z,29.60
2018-07-13T11:27:16.206Z,29.00
2018-07-13T11:29:45.075Z,28.30
2018-07-13T11:32:13.477Z,28.50
2018-07-13T11:34:44.505Z,29.00
2018-07-13T11:37:13.285Z,29.40
2018-07-13T11:39:41.909Z,28.90
2018-07-13T11:42:10.687Z,28.20
2018-07-13T11:44:39.898Z,28.40
2018-07-13T11:47:08.592Z,28.20
2018-07-13T11:49:37.209Z,29.00
2018-07-13T11:52:05.773Z,29.60
2018-07-13T11:54:34.296Z,30.00
2018-07-13T11:57:02.752Z,29.90
2018-07-13T11:59:32.565Z,29.90
2018-07-13T12:02:01.070Z,28.20
2018-07-13T12:04:29.551Z,28.00
2018-07-13T12:06:58.171Z,28.30
2018-07-13T12:09:26.714Z,28.80
2018-07-13T12:11:55.193Z,29.00
2018-07-13T12:14:23.696Z,29.50
2018-07-13T12:16:52.364Z,29.90
2018-07-13T12:19:22.090Z,29.50
2018-07-13T12:21:50.702Z,29.10
2018-07-13T12:24:20.555Z,29.00
2018-07-13T12:26:49.098Z,29.40
2018-07-13T12:29:17.542Z,29.10
2018-07-13T12:31:46.375Z,29.30
2018-07-13T12:34:15.168Z,29.60
2018-07-13T12:36:45.455Z,28.70
2018-07-13T12:39:14.362Z,28.80
2018-07-13T12:41:43.548Z,27.80
2018-07-13T12:44:12.063Z,27.90
2018-07-13T12:46:41.327Z,28.20
2018-07-13T12:49:11.949Z,28.00
2018-07-13T12:51:41.545Z,28.50
2018-07-13T12:54:11.181Z,28.30
2018-07-13T12:56:39.643Z,27.80
2018-07-13T12:59:08.663Z,28.40
2018-07-13T13:01:38.035Z,28.60
2018-07-13T13:04:06.660Z,28.80
2018-07-13T13:09:04.962Z,28.10
2018-07-13T13:11:33.473Z,28.30
2018-07-13T13:14:03.226Z,28.20
2018-07-13T13:16:32.063Z,28.40
2018-07-13T13:19:01.246Z,28.10
2018-07-13T13:21:31.318Z,29.00
2018-07-13T13:24:00.368Z,28.80
2018-07-13T13:26:29.237Z,29.10
2018-07-13T13:28:57.911Z,29.20
2018-07-13T13:31:26.416Z,28.30
2018-07-13T13:33:55.030Z,28.30
2018-07-13T13:36:25.100Z,29.00
2018-07-13T13:38:53.880Z,28.70
2018-07-13T13:41:23.001Z,28.30
2018-07-13T13:43:51.406Z,27.90
2018-07-13T13:46:19.992Z,28.40
2018-07-13T13:48:48.763Z,28.50
2018-07-13T13:51:18.063Z,28.60
2018-07-13T13:53:46.749Z,28.80
2018-07-13T13:56:15.941Z,29.30
2018-07-13T13:58:44.719Z,29.00
2018-07-13T14:01:13.594Z,28.50
2018-07-13T14:03:42.096Z,28.90
2018-07-13T14:06:12.447Z,29.00
2018-07-13T14:08:41.133Z,28.20
2018-07-13T14:11:09.513Z,27.50
2018-07-13T14:13:39.421Z,26.70
2018-07-13T14:16:08.389Z,26.60
2018-07-13T14:18:37.423Z,26.80
2018-07-13T14:21:06.203Z,27.50
2018-07-13T14:23:34.680Z,27.80
2018-07-13T14:26:03.486Z,28.10
2018-07-13T14:28:32.376Z,28.10
2018-07-13T14:31:00.786Z,27.40
2018-07-13T14:33:29.266Z,27.10
2018-07-13T14:35:57.638Z,26.60
2018-07-13T14:38:26.183Z,26.40
2018-07-13T14:40:55.795Z,26.50
2018-07-13T14:43:25.983Z,26.50
2018-07-13T14:45:54.514Z,26.50
2018-07-13T14:48:22.872Z,26.20
2018-07-13T14:50:51.637Z,26.20
2018-07-13T14:53:21.183Z,26.40
2018-07-13T14:55:49.653Z,26.30
2018-07-13T14:58:18.335Z,26.50
2018-07-13T15:00:47.676Z,26.40
2018-07-13T15:03:16.614Z,26.20
2018-07-13T15:05:45.864Z,26.50
2018-07-13T15:08:14.783Z,26.60
2018-07-13T15:10:43.691Z,26.60
2018-07-13T15:13:13.235Z,26.50
2018-07-13T15:15:42.620Z,26.40
2018-07-13T15:18:11.387Z,26.40
2018-07-13T15:20:39.736Z,26.50
2018-07-13T15:23:08.262Z,26.80
2018-07-13T15:25:36.906Z,26.90
2018-07-13T15:28:05.392Z,26.90
2018-07-13T15:30:34.447Z,26.90
2018-07-13T15:33:03.848Z,26.80
2018-07-13T15:35:32.488Z,26.70
2018-07-13T15:38:01.819Z,26.80
2018-07-13T15:40:30.189Z,26.60
2018-07-13T15:42:59.077Z,26.70
2018-07-13T15:45:27.935Z,26.80
2018-07-13T15:47:57.408Z,26.30
2018-07-13T15:50:25.753Z,26.20
2018-07-13T15:55:25.851Z,26.50
2018-07-13T15:57:54.388Z,26.50
2018-07-13T16:00:22.781Z,26.20
2018-07-13T16:02:51.572Z,25.80
2018-07-13T16:05:20.067Z,25.90
2018-07-13T16:07:48.787Z,25.70
2018-07-13T16:10:17.625Z,25.20
2018-07-13T16:12:46.498Z,25.30
2018-07-13T16:15:15.064Z,25.40
2018-07-13T16:17:43.618Z,25.40
2018-07-13T16:20:12.045Z,25.60
2018-07-13T16:22:40.462Z,25.60
2018-07-13T16:25:08.906Z,25.70
2018-07-13T16:27:39.016Z,25.70
2018-07-13T16:30:07.590Z,25.50
2018-07-13T16:32:49.258Z,25.20
2018-07-13T16:35:18.783Z,25.30
2018-07-13T16:37:47.937Z,25.30
2018-07-13T16:40:17.132Z,25.20
2018-07-13T16:42:46.485Z,25.20
2018-07-13T16:45:15.722Z,25.40
2018-07-13T16:47:44.479Z,25.40
2018-07-13T16:50:12.890Z,25.40
2018-07-13T16:52:42.268Z,25.30
2018-07-13T16:55:10.888Z,25.40
2018-07-13T16:57:39.335Z,25.40
2018-07-13T17:00:08.573Z,25.30
2018-07-13T17:02:36.969Z,25.20
2018-07-13T17:05:05.956Z,25.10
2018-07-13T17:07:34.817Z,25.00
2018-07-13T17:10:03.301Z,25.00
2018-07-13T17:12:31.983Z,24.90
2018-07-13T17:15:00.477Z,25.00
2018-07-13T17:17:28.888Z,25.10
2018-07-13T17:19:57.395Z,25.10
2018-07-13T17:22:26.024Z,25.20
2018-07-13T17:24:54.446Z,25.20
2018-07-13T17:27:22.862Z,25.00
2018-07-13T17:29:51.295Z,25.00
2018-07-13T17:32:20.406Z,25.00
2018-07-13T17:34:49.019Z,25.10
2018-07-13T17:37:18.075Z,25.20
2018-07-13T17:39:46.770Z,25.20
2018-07-13T17:45:03.748Z,24.90
2018-07-13T17:47:32.485Z,24.80
2018-07-13T17:50:00.841Z,24.70
2018-07-13T17:52:29.455Z,24.70
2018-07-13T17:54:57.948Z,24.60
2018-07-13T17:57:26.385Z,24.70
2018-07-13T17:59:54.863Z,24.70
2018-07-13T18:02:23.654Z,24.60
2018-07-13T18:04:52.157Z,24.60
2018-07-13T18:07:20.661Z,24.50
2018-07-13T18:09:49.495Z,24.50
2018-07-13T18:12:17.854Z,24.50
2018-07-13T18:14:47.055Z,24.40
2018-07-13T18:17:15.451Z,24.40
2018-07-13T18:19:44.100Z,24.30
2018-07-13T18:22:12.601Z,24.40
2018-07-13T18:24:41.056Z,24.30
2018-07-13T18:27:09.356Z,24.30
2018-07-13T18:29:37.801Z,24.20
2018-07-13T18:32:06.332Z,24.20
2018-07-13T18:34:34.689Z,24.20
2018-07-13T18:37:03.766Z,24.20
2018-07-13T18:39:32.155Z,24.10
2018-07-13T18:42:00.892Z,24.10
2018-07-13T18:44:29.519Z,24.00
2018-07-13T18:46:58.386Z,24.00
2018-07-13T18:49:26.730Z,24.00
2018-07-13T18:51:55.557Z,23.90
2018-07-13T18:54:24.231Z,23.80
2018-07-13T18:56:52.739Z,23.80
2018-07-13T18:59:21.161Z,23.70
2018-07-13T19:01:49.694Z,23.70
2018-07-13T19:04:18.349Z,23.60
2018-07-13T19:06:47.653Z,23.50
2018-07-13T19:09:16.153Z,23.50
2018-07-13T19:11:44.993Z,23.40
2018-07-13T19:14:16.802Z,23.30
2018-07-13T19:16:46.059Z,23.30
2018-07-13T19:19:14.571Z,23.20
2018-07-13T19:21:42.955Z,23.10
2018-07-13T19:24:11.749Z,23.10
2018-07-13T19:26:40.093Z,22.90
2018-07-13T19:29:08.473Z,22.80
2018-07-13T19:31:37.004Z,22.80
2018-07-13T19:34:05.957Z,22.80
2018-07-13T19:36:34.562Z,22.70
2018-07-13T19:39:02.882Z,22.70
2018-07-13T19:41:31.395Z,22.60
2018-07-13T19:43:59.968Z,22.50
2018-07-13T19:46:28.447Z,22.50
2018-07-13T19:48:56.915Z,22.40
2018-07-13T19:51:25.328Z,22.30
2018-07-13T19:53:53.868Z,22.10
2018-07-13T19:56:22.374Z,22.10
2018-07-13T19:58:50.873Z,22.00
2018-07-13T20:01:19.212Z,21.90
2018-07-13T20:03:48.707Z,21.90
2018-07-13T20:06:16.976Z,21.90
2018-07-13T20:08:45.485Z,21.90
2018-07-13T20:11:14.284Z,21.80
2018-07-13T20:13:43.058Z,21.60
2018-07-13T20:18:41.514Z,21.50
2018-07-13T20:21:10.148Z,21.30
2018-07-13T20:23:38.583Z,21.30
2018-07-13T20:26:07.058Z,21.30
2018-07-13T20:28:35.450Z,21.20
2018-07-13T20:31:03.906Z,21.20
2018-07-13T20:33:32.320Z,21.20
2018-07-13T20:36:00.779Z,21.20
2018-07-13T20:38:29.097Z,21.10
2018-07-13T20:40:57.541Z,21.00
2018-07-13T20:43:26.062Z,21.00
2018-07-13T20:45:54.600Z,21.00
2018-07-13T20:48:23.613Z,20.90
2018-07-13T20:50:52.343Z,20.80
2018-07-13T20:53:20.712Z,20.70
2018-07-13T20:55:49.204Z,20.70
2018-07-13T20:58:18.231Z,20.50
2018-07-13T21:00:46.668Z,20.50
2018-07-13T21:03:15.082Z,20.50
2018-07-13T21:05:43.497Z,20.50
2018-07-13T21:08:11.967Z,20.50
2018-07-13T21:10:40.396Z,20.40
2018-07-13T21:13:08.820Z,20.40
2018-07-13T21:15:38.649Z,20.40
2018-07-13T21:18:07.168Z,20.30
2018-07-13T21:20:35.518Z,20.20
2018-07-13T21:23:03.822Z,20.20
2018-07-13T21:28:00.597Z,20.10
2018-07-13T21:30:29.102Z,20.00
2018-07-13T21:32:57.687Z,19.90
2018-07-13T21:35:26.092Z,19.90
2018-07-13T21:40:24.571Z,19.70
2018-07-13T21:42:55.998Z,19.70
2018-07-13T21:45:24.617Z,19.60
2018-07-13T21:47:52.800Z,19.50
2018-07-13T21:50:21.238Z,19.50
2018-07-13T21:52:49.901Z,19.50
2018-07-13T21:55:18.433Z,19.50
2018-07-13T21:57:46.862Z,19.60
2018-07-13T22:00:15.287Z,19.50
2018-07-13T22:02:43.890Z,19.40
2018-07-13T22:05:12.296Z,19.30
2018-07-13T22:07:40.584Z,19.10
2018-07-13T22:10:09.020Z,19.10
2018-07-13T22:12:37.496Z,19.00
2018-07-13T22:15:06.080Z,19.00
2018-07-13T22:17:34.359Z,19.00
2018-07-13T22:20:02.744Z,19.00
2018-07-13T22:22:31.112Z,19.00
2018-07-13T22:24:59.523Z,19.00
2018-07-13T22:27:28.034Z,19.10
2018-07-13T22:29:56.501Z,19.00
2018-07-13T22:32:25.033Z,19.10
2018-07-13T22:34:53.433Z,19.00
2018-07-13T22:37:21.858Z,19.00
2018-07-13T22:39:50.404Z,18.90
2018-07-13T22:42:18.713Z,18.80
2018-07-13T22:44:54.839Z,18.80
2018-07-13T22:47:23.213Z,18.70
2018-07-13T22:49:52.812Z,18.70
2018-07-13T22:52:21.104Z,18.70
2018-07-13T22:54:51.101Z,18.60
2018-07-13T22:57:19.391Z,18.50
2018-07-13T22:59:48.012Z,18.40
2018-07-13T23:02:16.284Z,18.20
2018-07-13T23:04:44.642Z,18.30
2018-07-13T23:07:13.743Z,18.20
2018-07-13T23:09:42.161Z,18.20
2018-07-13T23:12:10.752Z,18.10
2018-07-13T23:14:39.329Z,18.00
2018-07-13T23:17:07.666Z,18.00
2018-07-13T23:19:36.144Z,17.90
2018-07-13T23:22:04.631Z,17.80
2018-07-13T23:24:33.020Z,17.90
2018-07-13T23:27:01.402Z,17.90
2018-07-13T23:29:29.980Z,17.90
2018-07-13T23:31:58.347Z,17.80
2018-07-13T23:34:26.760Z,17.70
2018-07-13T23:36:55.144Z,17.60
2018-07-13T23:39:23.477Z,17.50
2018-07-13T23:41:51.806Z,17.30
2018-07-13T23:44:20.325Z,17.30
2018-07-13T23:46:48.674Z,17.10
2018-07-13T23:49:17.038Z,17.10
2018-07-13T23:51:45.413Z,17.20
2018-07-13T23:54:13.813Z,17.30
2018-07-13T23:56:42.161Z,17.30
2018-07-13T23:59:10.558Z,17.20
